sensor_id;sensor_type;location;lat;lon;timestamp;P1;durP1;ratioP1;P2;durP2;ratioP2
2257;SDS011;1136;51.574;7.706;2024-01-07T00:02:15;23.50;;;15.07;;
2257;SDS011;1136;51.574;7.706;2024-01-07T00:05:19;18.83;;;14.27;;
2257;SDS011;1136;51.574;7.706;2024-01-07T00:08:23;18.83;;;14.00;;
2257;SDS011;1136;51.574;7.706;2024-01-07T00:11:27;22.53;;;14.77;;
2257;SDS011;1136;51.574;7.706;2024-01-07T00:14:32;19.27;;;12.87;;
2257;SDS011;1136;51.574;7.706;2024-01-07T00:17:36;23.20;;;15.17;;
2257;SDS011;1136;51.574;7.706;2024-01-07T00:20:40;20.43;;;13.40;;
2257;SDS011;1136;51.574;7.706;2024-01-07T00:23:48;22.10;;;15.17;;
2257;SDS011;1136;51.574;7.706;2024-01-07T00:26:52;20.40;;;14.27;;
2257;SDS011;1136;51.574;7.706;2024-01-07T00:29:56;19.63;;;14.60;;
2257;SDS011;1136;51.574;7.706;2024-01-07T00:33:00;19.50;;;13.60;;
2257;SDS011;1136;51.574;7.706;2024-01-07T00:36:05;21.73;;;14.37;;
2257;SDS011;1136;51.574;7.706;2024-01-07T00:39:09;21.13;;;14.47;;
2257;SDS011;1136;51.574;7.706;2024-01-07T00:42:13;19.90;;;13.93;;
2257;SDS011;1136;51.574;7.706;2024-01-07T00:45:18;22.33;;;15.63;;
2257;SDS011;1136;51.574;7.706;2024-01-07T00:48:22;16.77;;;13.00;;
2257;SDS011;1136;51.574;7.706;2024-01-07T00:51:26;21.00;;;14.93;;
2257;SDS011;1136;51.574;7.706;2024-01-07T00:54:30;18.10;;;13.50;;
2257;SDS011;1136;51.574;7.706;2024-01-07T00:57:35;22.13;;;15.77;;
2257;SDS011;1136;51.574;7.706;2024-01-07T01:00:39;24.00;;;15.50;;
2257;SDS011;1136;51.574;7.706;2024-01-07T01:03:43;24.83;;;16.03;;
2257;SDS011;1136;51.574;7.706;2024-01-07T01:06:48;23.17;;;15.50;;
2257;SDS011;1136;51.574;7.706;2024-01-07T01:09:52;22.40;;;16.27;;
2257;SDS011;1136;51.574;7.706;2024-01-07T01:12:56;23.37;;;16.30;;
2257;SDS011;1136;51.574;7.706;2024-01-07T01:16:00;22.73;;;16.80;;
2257;SDS011;1136;51.574;7.706;2024-01-07T01:19:05;23.63;;;15.80;;
2257;SDS011;1136;51.574;7.706;2024-01-07T01:22:09;22.00;;;15.33;;
2257;SDS011;1136;51.574;7.706;2024-01-07T01:25:13;27.77;;;17.70;;
2257;SDS011;1136;51.574;7.706;2024-01-07T01:28:18;24.20;;;16.17;;
2257;SDS011;1136;51.574;7.706;2024-01-07T01:31:22;23.90;;;16.03;;
2257;SDS011;1136;51.574;7.706;2024-01-07T01:34:26;21.07;;;16.50;;
2257;SDS011;1136;51.574;7.706;2024-01-07T01:37:30;23.83;;;16.00;;
2257;SDS011;1136;51.574;7.706;2024-01-07T01:40:37;22.07;;;16.53;;
2257;SDS011;1136;51.574;7.706;2024-01-07T01:43:43;21.03;;;16.63;;
2257;SDS011;1136;51.574;7.706;2024-01-07T01:46:47;21.50;;;14.80;;
2257;SDS011;1136;51.574;7.706;2024-01-07T01:49:51;27.67;;;17.70;;
2257;SDS011;1136;51.574;7.706;2024-01-07T01:52:55;19.93;;;15.03;;
2257;SDS011;1136;51.574;7.706;2024-01-07T01:56:00;22.80;;;15.97;;
2257;SDS011;1136;51.574;7.706;2024-01-07T01:59:06;19.50;;;14.77;;
2257;SDS011;1136;51.574;7.706;2024-01-07T02:02:10;22.10;;;15.60;;
2257;SDS011;1136;51.574;7.706;2024-01-07T02:05:15;18.23;;;14.20;;
2257;SDS011;1136;51.574;7.706;2024-01-07T02:08:19;21.40;;;16.60;;
2257;SDS011;1136;51.574;7.706;2024-01-07T02:11:23;20.60;;;14.40;;
2257;SDS011;1136;51.574;7.706;2024-01-07T02:14:28;19.43;;;12.73;;
2257;SDS011;1136;51.574;7.706;2024-01-07T02:17:31;18.37;;;13.90;;
2257;SDS011;1136;51.574;7.706;2024-01-07T02:20:36;19.27;;;14.13;;
2257;SDS011;1136;51.574;7.706;2024-01-07T02:23:40;19.67;;;13.20;;
2257;SDS011;1136;51.574;7.706;2024-01-07T02:26:45;15.90;;;13.10;;
2257;SDS011;1136;51.574;7.706;2024-01-07T02:29:49;19.23;;;14.67;;
2257;SDS011;1136;51.574;7.706;2024-01-07T02:32:53;18.50;;;13.47;;
2257;SDS011;1136;51.574;7.706;2024-01-07T02:35:58;15.13;;;12.40;;
2257;SDS011;1136;51.574;7.706;2024-01-07T02:39:02;19.50;;;13.60;;
2257;SDS011;1136;51.574;7.706;2024-01-07T02:42:06;15.10;;;12.33;;
2257;SDS011;1136;51.574;7.706;2024-01-07T02:45:10;15.10;;;12.37;;
2257;SDS011;1136;51.574;7.706;2024-01-07T02:48:15;17.50;;;13.77;;
2257;SDS011;1136;51.574;7.706;2024-01-07T02:51:19;19.93;;;13.60;;
2257;SDS011;1136;51.574;7.706;2024-01-07T02:54:24;18.40;;;13.17;;
2257;SDS011;1136;51.574;7.706;2024-01-07T02:57:28;19.60;;;13.73;;
2257;SDS011;1136;51.574;7.706;2024-01-07T03:00:32;17.37;;;14.30;;
2257;SDS011;1136;51.574;7.706;2024-01-07T03:03:36;21.03;;;13.63;;
2257;SDS011;1136;51.574;7.706;2024-01-07T03:06:41;17.17;;;13.00;;
2257;SDS011;1136;51.574;7.706;2024-01-07T03:09:46;17.07;;;14.40;;
2257;SDS011;1136;51.574;7.706;2024-01-07T03:12:51;18.73;;;14.07;;
2257;SDS011;1136;51.574;7.706;2024-01-07T03:15:55;18.43;;;13.57;;
2257;SDS011;1136;51.574;7.706;2024-01-07T03:19:00;17.00;;;14.37;;
2257;SDS011;1136;51.574;7.706;2024-01-07T03:22:07;16.87;;;13.87;;
2257;SDS011;1136;51.574;7.706;2024-01-07T03:25:11;22.17;;;15.23;;
2257;SDS011;1136;51.574;7.706;2024-01-07T03:28:16;19.47;;;15.00;;
2257;SDS011;1136;51.574;7.706;2024-01-07T03:31:20;18.83;;;14.03;;
2257;SDS011;1136;51.574;7.706;2024-01-07T03:34:27;20.13;;;14.23;;
2257;SDS011;1136;51.574;7.706;2024-01-07T03:37:31;17.60;;;13.40;;
2257;SDS011;1136;51.574;7.706;2024-01-07T03:40:36;19.97;;;13.87;;
2257;SDS011;1136;51.574;7.706;2024-01-07T03:43:40;19.07;;;14.73;;
2257;SDS011;1136;51.574;7.706;2024-01-07T03:46:44;16.77;;;13.00;;
2257;SDS011;1136;51.574;7.706;2024-01-07T03:49:49;17.43;;;13.70;;
2257;SDS011;1136;51.574;7.706;2024-01-07T03:52:53;14.97;;;12.70;;
2257;SDS011;1136;51.574;7.706;2024-01-07T03:55:57;16.50;;;13.17;;
2257;SDS011;1136;51.574;7.706;2024-01-07T03:59:01;15.30;;;12.80;;
2257;SDS011;1136;51.574;7.706;2024-01-07T04:02:08;19.80;;;14.70;;
2257;SDS011;1136;51.574;7.706;2024-01-07T04:05:12;18.00;;;13.27;;
2257;SDS011;1136;51.574;7.706;2024-01-07T04:08:19;15.23;;;12.87;;
2257;SDS011;1136;51.574;7.706;2024-01-07T04:11:23;16.60;;;12.07;;
2257;SDS011;1136;51.574;7.706;2024-01-07T04:14:27;15.87;;;12.77;;
2257;SDS011;1136;51.574;7.706;2024-01-07T04:17:33;17.77;;;11.77;;
2257;SDS011;1136;51.574;7.706;2024-01-07T04:20:38;16.00;;;11.83;;
2257;SDS011;1136;51.574;7.706;2024-01-07T04:23:42;19.77;;;14.27;;
2257;SDS011;1136;51.574;7.706;2024-01-07T04:26:47;18.97;;;13.57;;
2257;SDS011;1136;51.574;7.706;2024-01-07T04:29:51;15.20;;;13.30;;
2257;SDS011;1136;51.574;7.706;2024-01-07T04:32:55;17.93;;;13.23;;
2257;SDS011;1136;51.574;7.706;2024-01-07T04:35:59;13.47;;;11.33;;
2257;SDS011;1136;51.574;7.706;2024-01-07T04:39:05;16.50;;;12.30;;
2257;SDS011;1136;51.574;7.706;2024-01-07T04:42:09;15.67;;;13.03;;
2257;SDS011;1136;51.574;7.706;2024-01-07T04:45:16;16.30;;;11.93;;
2257;SDS011;1136;51.574;7.706;2024-01-07T04:48:20;19.40;;;13.70;;
2257;SDS011;1136;51.574;7.706;2024-01-07T04:51:25;19.73;;;13.00;;
2257;SDS011;1136;51.574;7.706;2024-01-07T04:54:29;18.57;;;14.60;;
2257;SDS011;1136;51.574;7.706;2024-01-07T04:57:33;15.80;;;13.20;;
2257;SDS011;1136;51.574;7.706;2024-01-07T05:00:37;18.67;;;13.90;;
2257;SDS011;1136;51.574;7.706;2024-01-07T05:03:41;13.73;;;12.00;;
2257;SDS011;1136;51.574;7.706;2024-01-07T05:06:45;17.17;;;13.07;;
2257;SDS011;1136;51.574;7.706;2024-01-07T05:09:50;20.83;;;13.07;;
2257;SDS011;1136;51.574;7.706;2024-01-07T05:12:54;15.17;;;13.30;;
2257;SDS011;1136;51.574;7.706;2024-01-07T05:15:58;16.30;;;13.03;;
2257;SDS011;1136;51.574;7.706;2024-01-07T05:19:03;19.03;;;14.07;;
2257;SDS011;1136;51.574;7.706;2024-01-07T05:22:09;17.33;;;13.33;;
2257;SDS011;1136;51.574;7.706;2024-01-07T05:25:14;19.60;;;13.37;;
2257;SDS011;1136;51.574;7.706;2024-01-07T05:28:18;16.83;;;13.40;;
2257;SDS011;1136;51.574;7.706;2024-01-07T05:31:23;17.90;;;13.50;;
2257;SDS011;1136;51.574;7.706;2024-01-07T05:34:28;18.37;;;13.90;;
2257;SDS011;1136;51.574;7.706;2024-01-07T05:37:32;16.80;;;13.80;;
2257;SDS011;1136;51.574;7.706;2024-01-07T05:40:37;18.33;;;13.07;;
2257;SDS011;1136;51.574;7.706;2024-01-07T05:43:41;22.53;;;15.20;;
2257;SDS011;1136;51.574;7.706;2024-01-07T05:46:45;19.00;;;14.67;;
2257;SDS011;1136;51.574;7.706;2024-01-07T05:49:49;17.77;;;14.20;;
2257;SDS011;1136;51.574;7.706;2024-01-07T05:52:56;18.07;;;13.70;;
2257;SDS011;1136;51.574;7.706;2024-01-07T05:56:00;19.70;;;14.17;;
2257;SDS011;1136;51.574;7.706;2024-01-07T05:59:05;18.83;;;14.73;;
2257;SDS011;1136;51.574;7.706;2024-01-07T06:02:09;20.27;;;13.20;;
2257;SDS011;1136;51.574;7.706;2024-01-07T06:05:13;18.47;;;13.70;;
2257;SDS011;1136;51.574;7.706;2024-01-07T06:08:17;17.20;;;13.80;;
2257;SDS011;1136;51.574;7.706;2024-01-07T06:11:22;22.37;;;15.33;;
2257;SDS011;1136;51.574;7.706;2024-01-07T06:14:26;17.97;;;13.67;;
2257;SDS011;1136;51.574;7.706;2024-01-07T06:17:31;19.80;;;14.33;;
2257;SDS011;1136;51.574;7.706;2024-01-07T06:20:35;18.43;;;13.77;;
2257;SDS011;1136;51.574;7.706;2024-01-07T06:23:39;22.60;;;14.17;;
2257;SDS011;1136;51.574;7.706;2024-01-07T06:26:43;18.70;;;14.07;;
2257;SDS011;1136;51.574;7.706;2024-01-07T06:29:48;16.53;;;11.93;;
2257;SDS011;1136;51.574;7.706;2024-01-07T06:32:52;21.67;;;14.60;;
2257;SDS011;1136;51.574;7.706;2024-01-07T06:35:57;17.53;;;12.30;;
2257;SDS011;1136;51.574;7.706;2024-01-07T06:39:01;17.87;;;12.60;;
2257;SDS011;1136;51.574;7.706;2024-01-07T06:42:07;15.30;;;11.73;;
2257;SDS011;1136;51.574;7.706;2024-01-07T06:45:11;17.77;;;12.90;;
2257;SDS011;1136;51.574;7.706;2024-01-07T06:48:16;15.47;;;12.10;;
2257;SDS011;1136;51.574;7.706;2024-01-07T06:51:20;16.43;;;11.57;;
2257;SDS011;1136;51.574;7.706;2024-01-07T06:54:24;12.03;;;10.43;;
2257;SDS011;1136;51.574;7.706;2024-01-07T06:57:29;15.73;;;10.50;;
2257;SDS011;1136;51.574;7.706;2024-01-07T07:00:33;15.23;;;10.07;;
2257;SDS011;1136;51.574;7.706;2024-01-07T07:03:39;12.17;;;10.27;;
2257;SDS011;1136;51.574;7.706;2024-01-07T07:06:44;13.10;;;9.50;;
2257;SDS011;1136;51.574;7.706;2024-01-07T07:09:48;10.00;;;8.97;;
2257;SDS011;1136;51.574;7.706;2024-01-07T07:12:53;11.40;;;8.50;;
2257;SDS011;1136;51.574;7.706;2024-01-07T07:15:57;10.30;;;9.20;;
2257;SDS011;1136;51.574;7.706;2024-01-07T07:19:01;10.47;;;8.30;;
2257;SDS011;1136;51.574;7.706;2024-01-07T07:22:06;9.80;;;8.50;;
2257;SDS011;1136;51.574;7.706;2024-01-07T07:25:10;9.70;;;7.77;;
2257;SDS011;1136;51.574;7.706;2024-01-07T07:28:14;11.43;;;9.17;;
2257;SDS011;1136;51.574;7.706;2024-01-07T07:31:18;12.10;;;9.67;;
2257;SDS011;1136;51.574;7.706;2024-01-07T07:34:23;13.70;;;9.87;;
2257;SDS011;1136;51.574;7.706;2024-01-07T07:37:27;13.00;;;10.30;;
2257;SDS011;1136;51.574;7.706;2024-01-07T07:40:31;19.90;;;10.50;;
2257;SDS011;1136;51.574;7.706;2024-01-07T07:43:36;11.27;;;9.83;;
2257;SDS011;1136;51.574;7.706;2024-01-07T07:46:40;18.50;;;11.70;;
2257;SDS011;1136;51.574;7.706;2024-01-07T07:49:45;15.70;;;11.60;;
2257;SDS011;1136;51.574;7.706;2024-01-07T07:52:49;13.80;;;11.53;;
2257;SDS011;1136;51.574;7.706;2024-01-07T07:55:53;15.90;;;12.17;;
2257;SDS011;1136;51.574;7.706;2024-01-07T07:58:57;16.30;;;12.10;;
2257;SDS011;1136;51.574;7.706;2024-01-07T08:02:02;18.10;;;13.20;;
2257;SDS011;1136;51.574;7.706;2024-01-07T08:05:06;15.97;;;12.80;;
2257;SDS011;1136;51.574;7.706;2024-01-07T08:08:11;16.00;;;13.13;;
2257;SDS011;1136;51.574;7.706;2024-01-07T08:11:15;19.63;;;13.00;;
2257;SDS011;1136;51.574;7.706;2024-01-07T08:14:19;17.00;;;11.60;;
2257;SDS011;1136;51.574;7.706;2024-01-07T08:17:24;16.67;;;12.93;;
2257;SDS011;1136;51.574;7.706;2024-01-07T08:20:40;13.07;;;10.27;;
2257;SDS011;1136;51.574;7.706;2024-01-07T08:23:45;15.17;;;11.50;;
2257;SDS011;1136;51.574;7.706;2024-01-07T08:26:49;15.13;;;10.80;;
2257;SDS011;1136;51.574;7.706;2024-01-07T08:29:54;14.70;;;11.87;;
2257;SDS011;1136;51.574;7.706;2024-01-07T08:32:58;12.93;;;10.00;;
2257;SDS011;1136;51.574;7.706;2024-01-07T08:36:03;11.30;;;9.97;;
2257;SDS011;1136;51.574;7.706;2024-01-07T08:39:08;13.70;;;9.93;;
2257;SDS011;1136;51.574;7.706;2024-01-07T08:42:12;13.80;;;9.90;;
2257;SDS011;1136;51.574;7.706;2024-01-07T08:45:16;14.80;;;9.90;;
2257;SDS011;1136;51.574;7.706;2024-01-07T08:48:20;12.67;;;11.33;;
2257;SDS011;1136;51.574;7.706;2024-01-07T08:51:25;14.03;;;9.40;;
2257;SDS011;1136;51.574;7.706;2024-01-07T08:54:29;13.03;;;8.97;;
2257;SDS011;1136;51.574;7.706;2024-01-07T08:57:33;14.83;;;10.70;;
2257;SDS011;1136;51.574;7.706;2024-01-07T09:00:38;14.33;;;9.90;;
2257;SDS011;1136;51.574;7.706;2024-01-07T09:03:42;10.93;;;9.53;;
2257;SDS011;1136;51.574;7.706;2024-01-07T09:06:46;12.40;;;9.57;;
2257;SDS011;1136;51.574;7.706;2024-01-07T09:09:51;11.97;;;9.70;;
2257;SDS011;1136;51.574;7.706;2024-01-07T09:12:55;11.13;;;9.50;;
2257;SDS011;1136;51.574;7.706;2024-01-07T09:15:59;12.03;;;9.83;;
2257;SDS011;1136;51.574;7.706;2024-01-07T09:19:04;14.13;;;9.97;;
2257;SDS011;1136;51.574;7.706;2024-01-07T09:22:08;10.17;;;6.77;;
2257;SDS011;1136;51.574;7.706;2024-01-07T09:25:13;9.50;;;7.90;;
2257;SDS011;1136;51.574;7.706;2024-01-07T09:28:17;12.90;;;8.50;;
2257;SDS011;1136;51.574;7.706;2024-01-07T09:31:22;9.13;;;7.63;;
2257;SDS011;1136;51.574;7.706;2024-01-07T09:34:26;9.20;;;7.40;;
2257;SDS011;1136;51.574;7.706;2024-01-07T09:37:30;10.53;;;7.30;;
2257;SDS011;1136;51.574;7.706;2024-01-07T09:40:34;8.30;;;6.30;;
2257;SDS011;1136;51.574;7.706;2024-01-07T09:43:39;8.73;;;6.80;;
2257;SDS011;1136;51.574;7.706;2024-01-07T09:46:46;6.80;;;6.20;;
2257;SDS011;1136;51.574;7.706;2024-01-07T09:49:56;8.20;;;6.30;;
2257;SDS011;1136;51.574;7.706;2024-01-07T09:53:03;8.90;;;5.70;;
2257;SDS011;1136;51.574;7.706;2024-01-07T09:59:21;6.13;;;5.40;;
2257;SDS011;1136;51.574;7.706;2024-01-07T10:02:25;9.97;;;6.07;;
2257;SDS011;1136;51.574;7.706;2024-01-07T10:05:29;9.93;;;5.47;;
2257;SDS011;1136;51.574;7.706;2024-01-07T10:08:33;6.23;;;5.43;;
2257;SDS011;1136;51.574;7.706;2024-01-07T10:11:38;5.07;;;4.57;;
2257;SDS011;1136;51.574;7.706;2024-01-07T10:14:43;6.87;;;5.50;;
2257;SDS011;1136;51.574;7.706;2024-01-07T10:17:47;10.77;;;6.63;;
2257;SDS011;1136;51.574;7.706;2024-01-07T10:20:52;9.07;;;6.50;;
2257;SDS011;1136;51.574;7.706;2024-01-07T10:24:07;5.80;;;5.20;;
2257;SDS011;1136;51.574;7.706;2024-01-07T10:27:15;4.77;;;4.37;;
2257;SDS011;1136;51.574;7.706;2024-01-07T10:30:19;8.23;;;5.80;;
2257;SDS011;1136;51.574;7.706;2024-01-07T10:33:30;10.03;;;6.10;;
2257;SDS011;1136;51.574;7.706;2024-01-07T10:36:34;5.20;;;4.80;;
2257;SDS011;1136;51.574;7.706;2024-01-07T10:39:41;6.20;;;5.30;;
2257;SDS011;1136;51.574;7.706;2024-01-07T10:42:45;6.00;;;5.30;;
2257;SDS011;1136;51.574;7.706;2024-01-07T10:45:50;6.13;;;4.73;;
2257;SDS011;1136;51.574;7.706;2024-01-07T10:48:55;6.37;;;5.77;;
2257;SDS011;1136;51.574;7.706;2024-01-07T10:55:10;6.93;;;4.90;;
2257;SDS011;1136;51.574;7.706;2024-01-07T10:58:16;6.33;;;5.70;;
2257;SDS011;1136;51.574;7.706;2024-01-07T11:01:20;7.33;;;6.50;;
2257;SDS011;1136;51.574;7.706;2024-01-07T11:04:30;8.33;;;5.50;;
2257;SDS011;1136;51.574;7.706;2024-01-07T11:07:41;5.73;;;5.20;;
2257;SDS011;1136;51.574;7.706;2024-01-07T11:10:50;5.90;;;5.30;;
2257;SDS011;1136;51.574;7.706;2024-01-07T11:13:57;5.80;;;5.13;;
2257;SDS011;1136;51.574;7.706;2024-01-07T11:17:03;6.60;;;5.40;;
2257;SDS011;1136;51.574;7.706;2024-01-07T11:20:18;7.53;;;5.50;;
2257;SDS011;1136;51.574;7.706;2024-01-07T11:23:25;6.80;;;5.97;;
2257;SDS011;1136;51.574;7.706;2024-01-07T11:26:31;7.43;;;6.03;;
2257;SDS011;1136;51.574;7.706;2024-01-07T11:29:35;7.37;;;6.60;;
2257;SDS011;1136;51.574;7.706;2024-01-07T11:32:40;6.20;;;5.60;;
2257;SDS011;1136;51.574;7.706;2024-01-07T11:35:54;5.83;;;5.23;;
2257;SDS011;1136;51.574;7.706;2024-01-07T11:39:00;6.30;;;4.87;;
2257;SDS011;1136;51.574;7.706;2024-01-07T11:42:06;5.23;;;4.73;;
2257;SDS011;1136;51.574;7.706;2024-01-07T11:45:11;10.77;;;5.23;;
2257;SDS011;1136;51.574;7.706;2024-01-07T11:48:15;4.73;;;4.30;;
2257;SDS011;1136;51.574;7.706;2024-01-07T11:51:19;4.90;;;4.40;;
2257;SDS011;1136;51.574;7.706;2024-01-07T11:54:23;7.50;;;4.60;;
2257;SDS011;1136;51.574;7.706;2024-01-07T11:57:28;5.00;;;4.40;;
2257;SDS011;1136;51.574;7.706;2024-01-07T12:00:35;6.47;;;4.50;;
2257;SDS011;1136;51.574;7.706;2024-01-07T12:03:39;5.73;;;4.60;;
2257;SDS011;1136;51.574;7.706;2024-01-07T12:06:45;4.47;;;4.07;;
2257;SDS011;1136;51.574;7.706;2024-01-07T12:09:57;5.60;;;4.50;;
2257;SDS011;1136;51.574;7.706;2024-01-07T12:13:02;4.37;;;4.00;;
2257;SDS011;1136;51.574;7.706;2024-01-07T12:16:08;4.73;;;3.83;;
2257;SDS011;1136;51.574;7.706;2024-01-07T12:19:13;3.30;;;3.00;;
2257;SDS011;1136;51.574;7.706;2024-01-07T12:22:19;5.17;;;4.37;;
2257;SDS011;1136;51.574;7.706;2024-01-07T12:25:23;4.27;;;3.97;;
2257;SDS011;1136;51.574;7.706;2024-01-07T12:28:28;4.33;;;3.93;;
2257;SDS011;1136;51.574;7.706;2024-01-07T12:31:33;3.60;;;3.30;;
2257;SDS011;1136;51.574;7.706;2024-01-07T12:34:38;4.73;;;3.70;;
2257;SDS011;1136;51.574;7.706;2024-01-07T12:37:43;4.20;;;3.80;;
2257;SDS011;1136;51.574;7.706;2024-01-07T12:40:47;3.43;;;3.13;;
2257;SDS011;1136;51.574;7.706;2024-01-07T12:43:52;6.83;;;4.57;;
2257;SDS011;1136;51.574;7.706;2024-01-07T12:46:56;4.07;;;3.77;;
2257;SDS011;1136;51.574;7.706;2024-01-07T12:50:00;4.27;;;3.80;;
2257;SDS011;1136;51.574;7.706;2024-01-07T12:53:04;4.80;;;4.33;;
2257;SDS011;1136;51.574;7.706;2024-01-07T12:56:09;4.00;;;3.60;;
2257;SDS011;1136;51.574;7.706;2024-01-07T12:59:13;9.03;;;4.90;;
2257;SDS011;1136;51.574;7.706;2024-01-07T13:02:18;4.03;;;3.67;;
2257;SDS011;1136;51.574;7.706;2024-01-07T13:05:22;4.00;;;3.70;;
2257;SDS011;1136;51.574;7.706;2024-01-07T13:08:27;4.37;;;4.00;;
2257;SDS011;1136;51.574;7.706;2024-01-07T13:11:32;3.10;;;2.87;;
2257;SDS011;1136;51.574;7.706;2024-01-07T13:14:36;3.40;;;3.20;;
2257;SDS011;1136;51.574;7.706;2024-01-07T13:17:40;4.70;;;3.40;;
2257;SDS011;1136;51.574;7.706;2024-01-07T13:20:45;4.77;;;4.33;;
2257;SDS011;1136;51.574;7.706;2024-01-07T13:23:50;5.80;;;3.90;;
2257;SDS011;1136;51.574;7.706;2024-01-07T13:26:54;4.97;;;3.70;;
2257;SDS011;1136;51.574;7.706;2024-01-07T13:29:58;3.40;;;3.10;;
2257;SDS011;1136;51.574;7.706;2024-01-07T13:33:03;3.50;;;3.20;;
2257;SDS011;1136;51.574;7.706;2024-01-07T13:36:12;3.10;;;2.80;;
2257;SDS011;1136;51.574;7.706;2024-01-07T13:39:17;3.37;;;2.80;;
2257;SDS011;1136;51.574;7.706;2024-01-07T13:42:21;6.63;;;3.83;;
2257;SDS011;1136;51.574;7.706;2024-01-07T13:45:26;3.13;;;2.83;;
2257;SDS011;1136;51.574;7.706;2024-01-07T13:48:31;3.87;;;3.43;;
2257;SDS011;1136;51.574;7.706;2024-01-07T13:51:39;3.40;;;3.17;;
2257;SDS011;1136;51.574;7.706;2024-01-07T13:54:46;3.87;;;3.47;;
2257;SDS011;1136;51.574;7.706;2024-01-07T13:57:54;5.63;;;3.27;;
2257;SDS011;1136;51.574;7.706;2024-01-07T14:00:59;4.57;;;3.67;;
2257;SDS011;1136;51.574;7.706;2024-01-07T14:04:03;3.87;;;3.50;;
2257;SDS011;1136;51.574;7.706;2024-01-07T14:07:12;3.40;;;3.10;;
2257;SDS011;1136;51.574;7.706;2024-01-07T14:10:17;3.33;;;3.03;;
2257;SDS011;1136;51.574;7.706;2024-01-07T14:13:23;3.20;;;2.90;;
2257;SDS011;1136;51.574;7.706;2024-01-07T14:16:28;4.53;;;3.27;;
2257;SDS011;1136;51.574;7.706;2024-01-07T14:19:33;3.47;;;3.20;;
2257;SDS011;1136;51.574;7.706;2024-01-07T14:22:42;4.43;;;3.40;;
2257;SDS011;1136;51.574;7.706;2024-01-07T14:25:46;3.10;;;2.80;;
2257;SDS011;1136;51.574;7.706;2024-01-07T14:28:50;4.07;;;3.77;;
2257;SDS011;1136;51.574;7.706;2024-01-07T14:32:14;3.40;;;3.10;;
2257;SDS011;1136;51.574;7.706;2024-01-07T14:35:19;6.30;;;3.10;;
2257;SDS011;1136;51.574;7.706;2024-01-07T14:38:23;6.13;;;3.70;;
2257;SDS011;1136;51.574;7.706;2024-01-07T14:41:29;3.93;;;3.40;;
2257;SDS011;1136;51.574;7.706;2024-01-07T14:44:33;3.20;;;3.00;;
2257;SDS011;1136;51.574;7.706;2024-01-07T14:47:51;5.07;;;3.47;;
2257;SDS011;1136;51.574;7.706;2024-01-07T14:50:55;3.40;;;3.10;;
2257;SDS011;1136;51.574;7.706;2024-01-07T14:54:00;3.07;;;2.77;;
2257;SDS011;1136;51.574;7.706;2024-01-07T14:57:05;3.13;;;2.83;;
2257;SDS011;1136;51.574;7.706;2024-01-07T15:00:12;3.90;;;3.10;;
2257;SDS011;1136;51.574;7.706;2024-01-07T15:03:17;3.20;;;2.90;;
2257;SDS011;1136;51.574;7.706;2024-01-07T15:06:24;2.80;;;2.60;;
2257;SDS011;1136;51.574;7.706;2024-01-07T15:09:28;4.47;;;3.90;;
2257;SDS011;1136;51.574;7.706;2024-01-07T15:12:32;5.77;;;3.90;;
2257;SDS011;1136;51.574;7.706;2024-01-07T15:15:43;7.33;;;4.67;;
2257;SDS011;1136;51.574;7.706;2024-01-07T15:18:47;3.80;;;3.23;;
2257;SDS011;1136;51.574;7.706;2024-01-07T15:21:52;4.60;;;3.97;;
2257;SDS011;1136;51.574;7.706;2024-01-07T15:24:56;3.70;;;3.00;;
2257;SDS011;1136;51.574;7.706;2024-01-07T15:28:01;4.03;;;3.27;;
2257;SDS011;1136;51.574;7.706;2024-01-07T15:31:05;3.70;;;3.40;;
2257;SDS011;1136;51.574;7.706;2024-01-07T15:34:12;3.93;;;3.57;;
2257;SDS011;1136;51.574;7.706;2024-01-07T15:37:17;4.17;;;3.43;;
2257;SDS011;1136;51.574;7.706;2024-01-07T15:40:23;5.17;;;4.10;;
2257;SDS011;1136;51.574;7.706;2024-01-07T15:43:29;3.80;;;3.40;;
2257;SDS011;1136;51.574;7.706;2024-01-07T15:46:33;5.60;;;3.53;;
2257;SDS011;1136;51.574;7.706;2024-01-07T15:49:37;5.53;;;4.03;;
2257;SDS011;1136;51.574;7.706;2024-01-07T15:52:41;6.83;;;3.30;;
2257;SDS011;1136;51.574;7.706;2024-01-07T15:55:50;5.70;;;4.07;;
2257;SDS011;1136;51.574;7.706;2024-01-07T15:58:54;3.93;;;3.57;;
2257;SDS011;1136;51.574;7.706;2024-01-07T16:01:59;5.13;;;3.10;;
2257;SDS011;1136;51.574;7.706;2024-01-07T16:05:03;6.37;;;4.00;;
2257;SDS011;1136;51.574;7.706;2024-01-07T16:08:09;3.70;;;3.10;;
2257;SDS011;1136;51.574;7.706;2024-01-07T16:11:14;3.63;;;3.33;;
2257;SDS011;1136;51.574;7.706;2024-01-07T16:14:22;4.10;;;3.10;;
2257;SDS011;1136;51.574;7.706;2024-01-07T16:17:31;5.33;;;3.70;;
2257;SDS011;1136;51.574;7.706;2024-01-07T16:20:35;6.87;;;5.00;;
2257;SDS011;1136;51.574;7.706;2024-01-07T16:23:39;3.80;;;3.50;;
2257;SDS011;1136;51.574;7.706;2024-01-07T16:26:43;5.30;;;4.77;;
2257;SDS011;1136;51.574;7.706;2024-01-07T16:29:48;4.20;;;3.70;;
2257;SDS011;1136;51.574;7.706;2024-01-07T16:32:52;5.57;;;4.37;;
2257;SDS011;1136;51.574;7.706;2024-01-07T16:35:56;5.43;;;4.10;;
2257;SDS011;1136;51.574;7.706;2024-01-07T16:39:00;4.13;;;3.73;;
2257;SDS011;1136;51.574;7.706;2024-01-07T16:42:06;3.60;;;3.30;;
2257;SDS011;1136;51.574;7.706;2024-01-07T16:45:11;6.53;;;3.80;;
2257;SDS011;1136;51.574;7.706;2024-01-07T16:48:15;6.23;;;4.20;;
2257;SDS011;1136;51.574;7.706;2024-01-07T16:51:39;4.93;;;4.43;;
2257;SDS011;1136;51.574;7.706;2024-01-07T16:54:44;6.50;;;4.63;;
2257;SDS011;1136;51.574;7.706;2024-01-07T16:57:50;7.40;;;5.80;;
2257;SDS011;1136;51.574;7.706;2024-01-07T17:00:54;6.00;;;4.80;;
2257;SDS011;1136;51.574;7.706;2024-01-07T17:04:08;5.33;;;3.83;;
2257;SDS011;1136;51.574;7.706;2024-01-07T17:07:12;4.00;;;3.60;;
2257;SDS011;1136;51.574;7.706;2024-01-07T17:10:21;6.87;;;4.23;;
2257;SDS011;1136;51.574;7.706;2024-01-07T17:13:25;3.83;;;3.27;;
2257;SDS011;1136;51.574;7.706;2024-01-07T17:16:29;5.33;;;4.80;;
2257;SDS011;1136;51.574;7.706;2024-01-07T17:19:38;6.60;;;4.60;;
2257;SDS011;1136;51.574;7.706;2024-01-07T17:22:42;5.37;;;4.87;;
2257;SDS011;1136;51.574;7.706;2024-01-07T17:25:48;4.70;;;4.20;;
2257;SDS011;1136;51.574;7.706;2024-01-07T17:28:52;5.20;;;3.67;;
2257;SDS011;1136;51.574;7.706;2024-01-07T17:31:56;4.60;;;4.20;;
2257;SDS011;1136;51.574;7.706;2024-01-07T17:35:00;5.23;;;4.73;;
2257;SDS011;1136;51.574;7.706;2024-01-07T17:38:05;4.20;;;3.80;;
2257;SDS011;1136;51.574;7.706;2024-01-07T17:41:10;9.47;;;5.17;;
2257;SDS011;1136;51.574;7.706;2024-01-07T17:44:14;5.70;;;4.00;;
2257;SDS011;1136;51.574;7.706;2024-01-07T17:47:20;4.90;;;3.97;;
2257;SDS011;1136;51.574;7.706;2024-01-07T17:50:25;5.80;;;3.90;;
2257;SDS011;1136;51.574;7.706;2024-01-07T17:53:32;5.27;;;4.37;;
2257;SDS011;1136;51.574;7.706;2024-01-07T17:56:40;5.43;;;3.70;;
2257;SDS011;1136;51.574;7.706;2024-01-07T17:59:44;6.07;;;4.40;;
2257;SDS011;1136;51.574;7.706;2024-01-07T18:02:48;4.97;;;4.40;;
2257;SDS011;1136;51.574;7.706;2024-01-07T18:05:52;9.73;;;5.77;;
2257;SDS011;1136;51.574;7.706;2024-01-07T18:08:58;7.50;;;5.40;;
2257;SDS011;1136;51.574;7.706;2024-01-07T18:12:03;13.03;;;5.13;;
2257;SDS011;1136;51.574;7.706;2024-01-07T18:15:08;5.50;;;4.57;;
2257;SDS011;1136;51.574;7.706;2024-01-07T18:18:12;5.47;;;4.90;;
2257;SDS011;1136;51.574;7.706;2024-01-07T18:21:17;4.03;;;3.37;;
2257;SDS011;1136;51.574;7.706;2024-01-07T18:24:22;8.30;;;5.90;;
2257;SDS011;1136;51.574;7.706;2024-01-07T18:27:26;8.50;;;5.50;;
2257;SDS011;1136;51.574;7.706;2024-01-07T18:30:30;7.00;;;6.07;;
2257;SDS011;1136;51.574;7.706;2024-01-07T18:33:38;6.47;;;5.00;;
2257;SDS011;1136;51.574;7.706;2024-01-07T18:36:42;6.30;;;5.30;;
2257;SDS011;1136;51.574;7.706;2024-01-07T18:39:48;7.50;;;5.57;;
2257;SDS011;1136;51.574;7.706;2024-01-07T18:42:52;7.20;;;6.00;;
2257;SDS011;1136;51.574;7.706;2024-01-07T18:45:57;6.23;;;5.17;;
2257;SDS011;1136;51.574;7.706;2024-01-07T18:49:03;6.43;;;5.83;;
2257;SDS011;1136;51.574;7.706;2024-01-07T18:52:08;6.50;;;4.40;;
2257;SDS011;1136;51.574;7.706;2024-01-07T18:55:15;8.27;;;5.40;;
2257;SDS011;1136;51.574;7.706;2024-01-07T18:58:20;8.43;;;5.90;;
2257;SDS011;1136;51.574;7.706;2024-01-07T19:01:26;5.93;;;4.70;;